Licenciado Gustavo Díaz Ordaz International Airport

Airport
ICAO code: 
MMPR
IATA Code: 
PVR
Summary
ICAO Region: 
CARSAM
Territory: 
Location: 
Puerto Vallarta, Jalisco
Serving: 
Puerto Vallarta
Elevation: 
23 ft
Coordinates: 
Aerial View: 
20° 40' 48.299" N, 105° 15' 15.001" W
Metar
Observation
MMPR 190455Z 00000KT 8SM SKC 21/20 A2998 RMK HZY
Station
Puerto Vallarta / Lic
Date/Time
2022-01-19 04:55:00
Wind direction
Wind speed
00 kts
Lowest cloud amount
n/a
Temperature
21°C
Dew point
20°C
Humidity
94%
Weather condition
n/a

International airport 2 nm north west of Puerto Vallarta, Mexico.

Climatology

Tropical Savanna climate (Köppen climate classification Aw)

Runways

Designator Length Width Surface Rops
4/22 3100 45 ASP Yes/Yes
Airport map: 
Aerial View: 

SKYbrary Partners:

Safety knowledge contributed by: